createdAt,value
2023-05-08T00:00:42.238Z,5.64
2023-05-08T00:03:11.486Z,5.61
2023-05-08T00:05:39.457Z,5.63
2023-05-08T00:08:07.508Z,5.62
2023-05-08T00:10:35.607Z,5.57
2023-05-08T00:13:03.571Z,5.61
2023-05-08T00:15:31.607Z,5.58
2023-05-08T00:17:59.654Z,5.06
2023-05-08T00:20:29.103Z,5.56
2023-05-08T00:22:58.032Z,5.53
2023-05-08T00:25:26.153Z,5.52
2023-05-08T00:27:54.249Z,5.52
2023-05-08T00:30:22.544Z,5.52
2023-05-08T00:32:50.458Z,5.51
2023-05-08T00:35:18.535Z,5.42
2023-05-08T00:37:47.915Z,5.50
2023-05-08T00:40:16.213Z,5.49
2023-05-08T00:42:44.208Z,5.47
2023-05-08T00:45:13.345Z,5.39
2023-05-08T00:47:42.391Z,5.48
2023-05-08T00:50:12.138Z,5.47
2023-05-08T00:52:41.450Z,5.47
2023-05-08T00:55:11.108Z,5.45
2023-05-08T00:57:40.041Z,5.43
2023-05-08T01:00:09.256Z,5.44
2023-05-08T01:02:37.577Z,5.44
2023-05-08T01:05:07.801Z,5.43
2023-05-08T01:07:36.025Z,5.46
2023-05-08T01:10:03.985Z,5.45
2023-05-08T01:12:48.214Z,5.43
2023-05-08T01:15:19.691Z,5.47
2023-05-08T01:17:58.779Z,5.46
2023-05-08T01:20:40.895Z,5.37
2023-05-08T01:23:45.407Z,5.46
2023-05-08T01:26:32.847Z,5.36
2023-05-08T01:29:40.241Z,5.46
2023-05-08T01:32:19.806Z,5.40
2023-05-08T01:35:01.844Z,5.45
2023-05-08T01:37:38.682Z,5.45
2023-05-08T01:40:14.203Z,5.44
2023-05-08T01:42:50.368Z,5.43
2023-05-08T01:45:23.621Z,5.32
2023-05-08T01:48:01.771Z,5.42
2023-05-08T01:50:34.770Z,5.22
2023-05-08T01:53:10.871Z,5.40
2023-05-08T01:55:42.332Z,5.34
2023-05-08T01:58:13.257Z,5.39
2023-05-08T02:00:42.677Z,5.39
2023-05-08T02:03:14.974Z,5.38
2023-05-08T02:05:45.352Z,5.36
2023-05-08T02:08:14.282Z,5.35
2023-05-08T02:10:43.604Z,5.33
2023-05-08T02:13:12.782Z,5.25
2023-05-08T02:15:43.144Z,5.03
2023-05-08T02:18:14.378Z,5.30
2023-05-08T02:20:43.321Z,5.28
2023-05-08T02:23:13.838Z,5.19
2023-05-08T02:25:43.879Z,5.23
2023-05-08T02:28:12.576Z,4.94
2023-05-08T02:30:41.508Z,5.20
2023-05-08T02:33:10.932Z,5.13
2023-05-08T02:35:42.191Z,5.17
2023-05-08T02:38:11.781Z,5.16
2023-05-08T02:40:45.369Z,5.15
2023-05-08T02:43:13.694Z,5.15
2023-05-08T02:45:46.834Z,5.09
2023-05-08T02:48:21.202Z,5.13
2023-05-08T02:50:59.219Z,5.11
2023-05-08T02:53:34.038Z,5.12
2023-05-08T02:56:06.977Z,5.09
2023-05-08T02:58:41.776Z,5.00
2023-05-08T03:01:22.950Z,5.09
2023-05-08T03:04:01.010Z,5.01
2023-05-08T03:06:36.394Z,5.00
2023-05-08T03:09:06.451Z,5.06
2023-05-08T03:11:41.545Z,5.06
2023-05-08T03:14:14.286Z,5.07
2023-05-08T03:16:45.983Z,4.33
2023-05-08T03:19:23.277Z,4.64
2023-05-08T03:21:53.184Z,5.03
2023-05-08T03:24:23.879Z,5.06
2023-05-08T03:26:52.312Z,5.02
2023-05-08T03:29:21.463Z,5.07
2023-05-08T03:31:52.128Z,5.00
2023-05-08T03:34:22.339Z,5.09
2023-05-08T03:36:50.385Z,5.11
2023-05-08T03:39:20.075Z,5.14
2023-05-08T03:41:48.009Z,5.15
2023-05-08T03:44:16.646Z,5.17
2023-05-08T03:46:46.259Z,5.18
2023-05-08T03:49:16.062Z,5.11
2023-05-08T03:51:44.494Z,5.21
2023-05-08T03:54:12.504Z,5.23
2023-05-08T03:56:41.769Z,5.21
2023-05-08T03:59:18.580Z,5.30
2023-05-08T04:01:53.438Z,5.36
2023-05-08T04:04:40.932Z,5.40
2023-05-08T04:07:15.124Z,5.34
2023-05-08T04:09:52.733Z,5.46
2023-05-08T04:12:27.646Z,5.46
2023-05-08T04:15:02.550Z,5.54
2023-05-08T04:17:37.370Z,5.60
2023-05-08T04:20:08.118Z,5.64
2023-05-08T04:22:39.780Z,5.68
2023-05-08T04:25:12.122Z,5.47
2023-05-08T04:27:43.661Z,5.66
2023-05-08T04:30:12.621Z,5.80
2023-05-08T04:32:42.319Z,5.84
2023-05-08T04:35:13.716Z,5.87
2023-05-08T04:37:43.450Z,5.92
2023-05-08T04:40:12.269Z,5.90
2023-05-08T04:42:43.226Z,6.02
2023-05-08T04:45:12.165Z,6.07
2023-05-08T04:47:40.512Z,6.07
2023-05-08T04:50:09.063Z,6.20
2023-05-08T04:52:36.909Z,6.26
2023-05-08T04:55:05.077Z,5.94
2023-05-08T04:57:33.036Z,6.29
2023-05-08T05:00:02.289Z,6.46
2023-05-08T05:02:30.119Z,6.53
2023-05-08T05:05:01.456Z,6.60
2023-05-08T05:07:29.362Z,6.67
2023-05-08T05:09:57.221Z,6.72
2023-05-08T05:12:25.520Z,6.80
2023-05-08T05:14:53.369Z,6.76
2023-05-08T05:17:23.162Z,6.92
2023-05-08T05:19:53.314Z,6.98
2023-05-08T05:22:21.362Z,7.06
2023-05-08T05:24:49.229Z,7.11
2023-05-08T05:27:19.899Z,7.20
2023-05-08T05:29:49.055Z,7.18
2023-05-08T05:32:16.945Z,7.21
2023-05-08T05:34:46.457Z,7.31
2023-05-08T05:37:16.633Z,7.44
2023-05-08T05:39:55.816Z,7.54
2023-05-08T05:42:24.344Z,7.63
2023-05-08T05:44:52.176Z,7.56
2023-05-08T05:47:20.159Z,7.69
2023-05-08T05:49:49.397Z,7.82
2023-05-08T05:52:17.231Z,7.90
2023-05-08T05:54:46.752Z,7.92
2023-05-08T05:57:15.271Z,8.02
2023-05-08T05:59:43.526Z,8.10
2023-05-08T06:02:14.661Z,8.18
2023-05-08T06:04:42.621Z,8.15
2023-05-08T06:07:12.126Z,8.31
2023-05-08T06:09:40.016Z,8.39
2023-05-08T06:12:08.294Z,8.42
2023-05-08T06:14:36.238Z,8.49
2023-05-08T06:17:04.226Z,8.57
2023-05-08T06:19:32.061Z,8.63
2023-05-08T06:22:00.053Z,8.72
2023-05-08T06:24:29.419Z,8.74
2023-05-08T06:26:57.365Z,8.64
2023-05-08T06:29:25.401Z,8.86
2023-05-08T06:31:53.305Z,9.02
2023-05-08T06:34:21.188Z,9.11
2023-05-08T06:36:49.076Z,8.27
2023-05-08T06:39:17.288Z,9.24
2023-05-08T06:41:48.410Z,9.33
2023-05-08T06:44:16.552Z,9.43
2023-05-08T06:46:44.539Z,9.54
2023-05-08T06:49:12.488Z,9.64
2023-05-08T06:51:40.529Z,9.67
2023-05-08T06:54:08.772Z,8.89
2023-05-08T06:56:37.082Z,9.94
2023-05-08T06:59:08.852Z,10.04
2023-05-08T07:01:38.229Z,10.20
2023-05-08T07:04:06.675Z,10.36
2023-05-08T07:06:34.832Z,10.55
2023-05-08T07:09:03.078Z,10.71
2023-05-08T07:11:31.008Z,10.84
2023-05-08T07:13:58.867Z,11.10
2023-05-08T07:16:28.236Z,11.49
2023-05-08T07:18:56.353Z,11.79
2023-05-08T07:21:24.241Z,12.59
2023-05-08T07:23:53.939Z,13.25
2023-05-08T07:26:22.719Z,13.65
2023-05-08T07:28:50.883Z,13.83
2023-05-08T07:31:18.923Z,13.68
2023-05-08T07:33:48.327Z,14.11
2023-05-08T07:36:16.372Z,14.73
2023-05-08T07:38:44.229Z,15.20
2023-05-08T07:41:12.206Z,15.13
2023-05-08T07:43:40.145Z,15.00
2023-05-08T07:46:08.061Z,15.37
2023-05-08T07:48:36.180Z,16.14
2023-05-08T07:51:05.837Z,16.76
2023-05-08T07:53:33.694Z,16.52
2023-05-08T07:56:01.642Z,16.59
2023-05-08T07:58:29.626Z,16.91
2023-05-08T08:00:57.523Z,17.53
2023-05-08T08:03:25.608Z,17.75
2023-05-08T08:05:53.653Z,17.44
2023-05-08T08:08:22.926Z,17.63
2023-05-08T08:10:51.212Z,18.38
2023-05-08T08:13:19.148Z,18.91
2023-05-08T08:15:47.119Z,19.23
2023-05-08T08:18:15.252Z,19.60
2023-05-08T08:20:43.170Z,19.44
2023-05-08T08:23:11.054Z,19.38
2023-05-08T08:25:40.438Z,19.31
2023-05-08T08:28:08.382Z,19.15
2023-05-08T08:30:36.209Z,19.80
2023-05-08T08:33:06.125Z,20.13
2023-05-08T08:35:34.367Z,20.64
2023-05-08T08:38:02.414Z,20.87
2023-05-08T08:40:30.439Z,20.92
2023-05-08T08:43:00.472Z,20.31
2023-05-08T08:45:28.298Z,20.16
2023-05-08T08:47:58.414Z,19.81
2023-05-08T08:50:27.938Z,19.67
2023-05-08T08:53:02.695Z,19.84
2023-05-08T08:55:32.150Z,19.12
2023-05-08T08:58:13.972Z,18.63
2023-05-08T09:00:42.814Z,18.35
2023-05-08T09:03:11.202Z,17.96
2023-05-08T09:05:39.477Z,17.89
2023-05-08T09:08:07.828Z,17.79
2023-05-08T09:10:37.181Z,16.52
2023-05-08T09:13:06.546Z,17.95
2023-05-08T09:15:34.725Z,18.36
2023-05-08T09:18:03.539Z,18.41
2023-05-08T09:20:31.863Z,18.14
2023-05-08T09:23:02.914Z,17.78
2023-05-08T09:25:43.004Z,17.64
2023-05-08T09:28:19.489Z,18.11
2023-05-08T09:30:51.894Z,18.89
2023-05-08T09:33:19.784Z,19.57
2023-05-08T09:35:48.866Z,19.62
2023-05-08T09:38:37.179Z,19.82
2023-05-08T09:41:09.840Z,19.73
2023-05-08T09:43:39.706Z,20.00
2023-05-08T09:46:24.836Z,20.29
2023-05-08T09:48:53.936Z,20.71
2023-05-08T09:51:22.589Z,20.83
2023-05-08T09:53:53.344Z,20.69
2023-05-08T09:56:35.589Z,21.12
2023-05-08T09:59:06.646Z,20.62
2023-05-08T10:01:36.793Z,19.61
2023-05-08T10:04:06.071Z,19.49
2023-05-08T10:06:34.699Z,19.69
2023-05-08T10:09:10.206Z,20.16
2023-05-08T10:11:38.384Z,20.44
2023-05-08T10:14:07.741Z,20.91
2023-05-08T10:16:42.807Z,20.76
2023-05-08T10:19:15.061Z,20.82
2023-05-08T10:21:47.231Z,21.01
2023-05-08T10:24:17.699Z,20.70
2023-05-08T10:27:05.731Z,20.20
2023-05-08T10:29:45.412Z,19.70
2023-05-08T10:32:14.556Z,19.76
2023-05-08T10:34:44.754Z,20.28
2023-05-08T10:37:13.760Z,20.61
2023-05-08T10:39:43.087Z,20.51
2023-05-08T10:42:11.739Z,20.49
2023-05-08T10:44:41.394Z,20.91
2023-05-08T10:47:18.960Z,21.22
2023-05-08T10:49:55.663Z,21.22
2023-05-08T10:52:30.726Z,21.38
2023-05-08T10:55:17.170Z,21.64
2023-05-08T10:58:07.109Z,21.82
2023-05-08T11:01:14.970Z,21.73
2023-05-08T11:03:46.122Z,21.90
2023-05-08T11:06:15.305Z,21.64
2023-05-08T11:08:54.806Z,21.78
2023-05-08T11:11:31.579Z,21.79
2023-05-08T11:14:15.238Z,22.34
2023-05-08T11:17:09.954Z,22.59
2023-05-08T11:19:39.148Z,22.73
2023-05-08T11:22:17.420Z,22.61
2023-05-08T11:24:57.980Z,23.01
2023-05-08T11:27:40.778Z,23.69
2023-05-08T11:30:23.333Z,23.66
2023-05-08T11:32:59.600Z,23.42
2023-05-08T11:35:48.280Z,23.06
2023-05-08T11:38:20.364Z,22.77
2023-05-08T11:40:50.592Z,22.58
2023-05-08T11:43:33.836Z,21.46
2023-05-08T11:46:04.330Z,21.12
2023-05-08T11:48:34.319Z,21.03
2023-05-08T11:51:02.762Z,21.80
2023-05-08T11:53:31.562Z,22.31
2023-05-08T11:56:00.559Z,22.30
2023-05-08T11:58:28.407Z,22.45
2023-05-08T12:00:56.640Z,21.93
2023-05-08T12:03:26.201Z,21.79
2023-05-08T12:05:58.695Z,21.73
2023-05-08T12:08:26.824Z,22.03
2023-05-08T12:10:56.684Z,20.82
2023-05-08T12:13:26.378Z,21.85
2023-05-08T12:15:56.143Z,22.22
2023-05-08T12:18:26.292Z,22.29
2023-05-08T12:20:58.451Z,22.62
2023-05-08T12:23:27.389Z,23.19
2023-05-08T12:25:55.754Z,23.66
2023-05-08T12:28:24.143Z,23.89
2023-05-08T12:30:52.333Z,24.26
2023-05-08T12:33:21.292Z,24.87
2023-05-08T12:35:49.435Z,24.21
2023-05-08T12:38:18.906Z,23.94
2023-05-08T12:40:49.201Z,24.14
2023-05-08T12:43:17.577Z,24.07
2023-05-08T12:45:45.818Z,23.53
2023-05-08T12:48:15.728Z,23.50
2023-05-08T12:50:45.237Z,23.02
2023-05-08T12:53:14.216Z,23.06
2023-05-08T12:55:53.540Z,22.74
2023-05-08T12:58:25.208Z,23.07
2023-05-08T13:00:54.004Z,24.04
2023-05-08T13:03:26.748Z,24.99
2023-05-08T13:05:55.972Z,24.79
2023-05-08T13:08:31.102Z,23.07
2023-05-08T13:11:01.349Z,22.83
2023-05-08T13:13:32.799Z,22.82
2023-05-08T13:16:04.576Z,23.40
2023-05-08T13:18:33.412Z,24.20
2023-05-08T13:21:02.317Z,24.44
2023-05-08T13:23:30.225Z,23.79
2023-05-08T13:25:58.302Z,23.45
2023-05-08T13:28:27.630Z,22.72
2023-05-08T13:30:55.469Z,22.94
2023-05-08T13:33:23.376Z,23.43
2023-05-08T13:35:51.352Z,23.89
2023-05-08T13:38:19.262Z,24.17
2023-05-08T13:40:47.188Z,24.52
2023-05-08T13:43:15.254Z,24.42
2023-05-08T13:45:44.508Z,24.26
2023-05-08T13:48:12.585Z,23.79
2023-05-08T13:50:40.768Z,24.16
2023-05-08T13:53:08.635Z,24.68
2023-05-08T13:55:38.153Z,24.69
2023-05-08T13:58:06.169Z,24.92
2023-05-08T14:00:34.803Z,24.90
2023-05-08T14:03:04.492Z,25.07
2023-05-08T14:05:32.475Z,24.73
2023-05-08T14:08:00.325Z,24.58
2023-05-08T14:10:28.254Z,24.61
2023-05-08T14:12:56.185Z,23.60
2023-05-08T14:15:29.257Z,24.35
2023-05-08T14:18:05.980Z,23.51
2023-05-08T14:20:34.030Z,23.46
2023-05-08T14:23:01.874Z,23.46
2023-05-08T14:25:29.793Z,23.75
2023-05-08T14:27:57.641Z,23.74
2023-05-08T14:30:25.598Z,23.70
2023-05-08T14:32:53.737Z,23.85
2023-05-08T14:35:23.037Z,24.18
2023-05-08T14:37:50.856Z,23.88
2023-05-08T14:40:19.103Z,24.81
2023-05-08T14:42:46.951Z,25.22
2023-05-08T14:45:14.993Z,25.03
2023-05-08T14:47:43.390Z,25.18
2023-05-08T14:50:12.291Z,24.69
2023-05-08T14:52:41.561Z,24.83
2023-05-08T14:55:10.995Z,24.89
2023-05-08T14:57:39.031Z,24.70
2023-05-08T15:00:08.337Z,24.93
2023-05-08T15:02:36.375Z,24.96
2023-05-08T15:07:54.260Z,24.61
2023-05-08T15:10:22.310Z,25.48
2023-05-08T15:12:50.494Z,25.40
2023-05-08T15:15:18.631Z,24.93
2023-05-08T15:17:46.655Z,24.23
2023-05-08T15:20:14.562Z,23.34
2023-05-08T15:22:42.527Z,22.89
2023-05-08T15:25:13.530Z,22.92
2023-05-08T15:27:42.009Z,23.55
2023-05-08T15:30:10.945Z,23.41
2023-05-08T15:32:40.317Z,22.92
2023-05-08T15:35:09.158Z,23.33
2023-05-08T15:37:38.199Z,23.33
2023-05-08T15:40:07.273Z,23.10
2023-05-08T15:42:36.877Z,22.98
2023-05-08T15:45:07.551Z,22.97
2023-05-08T15:47:35.405Z,22.99
2023-05-08T15:50:03.722Z,23.09
2023-05-08T15:52:31.826Z,23.06
2023-05-08T15:54:59.659Z,23.17
2023-05-08T15:57:28.073Z,23.21
2023-05-08T15:59:57.566Z,22.57
2023-05-08T16:02:25.504Z,22.44
2023-05-08T16:04:53.434Z,22.26
2023-05-08T16:07:22.857Z,22.05
2023-05-08T16:09:50.696Z,22.03
2023-05-08T16:12:19.857Z,22.25
2023-05-08T16:14:48.971Z,22.10
2023-05-08T16:17:18.382Z,21.88
2023-05-08T16:19:46.208Z,21.82
2023-05-08T16:22:14.320Z,21.22
2023-05-08T16:24:42.182Z,21.50
2023-05-08T16:27:11.411Z,21.58
2023-05-08T16:29:39.380Z,21.65
2023-05-08T16:32:07.404Z,21.83
2023-05-08T16:34:36.838Z,21.93
2023-05-08T16:37:04.988Z,21.90
2023-05-08T16:39:32.800Z,21.86
2023-05-08T16:42:00.656Z,21.83
2023-05-08T16:44:29.833Z,21.76
2023-05-08T16:46:57.692Z,21.60
2023-05-08T16:49:25.681Z,21.53
2023-05-08T16:51:57.433Z,21.03
2023-05-08T16:54:25.334Z,20.82
2023-05-08T16:56:53.176Z,20.45
2023-05-08T16:59:21.227Z,20.41
2023-05-08T17:01:49.081Z,20.10
2023-05-08T17:04:16.920Z,19.86
2023-05-08T17:06:44.902Z,19.70
2023-05-08T17:09:14.185Z,19.17
2023-05-08T17:11:42.006Z,18.34
2023-05-08T17:14:10.041Z,17.60
2023-05-08T17:16:38.702Z,17.15
2023-05-08T17:19:06.651Z,16.82
2023-05-08T17:21:35.011Z,16.27
2023-05-08T17:24:02.950Z,16.10
2023-05-08T17:26:34.570Z,15.87
2023-05-08T17:29:02.798Z,15.54
2023-05-08T17:31:30.736Z,15.13
2023-05-08T17:33:58.635Z,14.77
2023-05-08T17:36:26.637Z,14.67
2023-05-08T17:38:54.432Z,14.42
2023-05-08T17:41:23.049Z,14.33
2023-05-08T17:43:53.406Z,14.25
2023-05-08T17:46:21.466Z,14.20
2023-05-08T17:48:49.301Z,14.09
2023-05-08T17:51:17.308Z,14.02
2023-05-08T17:53:45.238Z,13.88
2023-05-08T17:56:13.214Z,13.80
2023-05-08T17:58:43.566Z,13.74
2023-05-08T18:01:13.990Z,13.48
2023-05-08T18:03:42.566Z,13.61
2023-05-08T18:06:11.166Z,13.50
2023-05-08T18:08:42.026Z,13.42
2023-05-08T18:11:17.631Z,13.34
2023-05-08T18:13:46.772Z,13.26
2023-05-08T18:16:18.706Z,13.07
2023-05-08T18:18:47.043Z,12.74
2023-05-08T18:21:15.110Z,12.83
2023-05-08T18:23:43.213Z,12.78
2023-05-08T18:26:14.310Z,12.68
2023-05-08T18:28:42.230Z,12.66
2023-05-08T18:31:11.009Z,12.62
2023-05-08T18:33:40.581Z,12.55
2023-05-08T18:36:08.937Z,12.43
2023-05-08T18:38:37.026Z,12.37
2023-05-08T18:41:06.243Z,12.37
2023-05-08T18:43:34.776Z,11.27
2023-05-08T18:46:09.332Z,12.08
2023-05-08T18:48:37.605Z,12.14
2023-05-08T18:51:07.230Z,12.17
2023-05-08T18:53:38.526Z,11.41
2023-05-08T18:56:07.536Z,11.95
2023-05-08T18:58:35.631Z,11.88
2023-05-08T19:01:03.954Z,11.68
2023-05-08T19:03:32.477Z,11.75
2023-05-08T19:06:00.588Z,11.68
2023-05-08T19:08:30.075Z,11.67
2023-05-08T19:10:58.592Z,11.51
2023-05-08T19:13:27.697Z,11.49
2023-05-08T19:15:56.419Z,11.41
2023-05-08T19:18:25.148Z,11.20
2023-05-08T19:20:53.000Z,11.29
2023-05-08T19:23:20.861Z,11.23
2023-05-08T19:25:50.250Z,11.07
2023-05-08T19:28:18.064Z,10.94
2023-05-08T19:30:45.912Z,10.89
2023-05-08T19:33:13.918Z,10.82
2023-05-08T19:35:41.771Z,10.73
2023-05-08T19:38:09.615Z,10.68
2023-05-08T19:40:51.915Z,10.60
2023-05-08T19:43:25.462Z,10.54
2023-05-08T19:45:53.564Z,10.49
2023-05-08T19:48:21.513Z,10.40
2023-05-08T19:50:49.637Z,10.24
2023-05-08T19:53:18.231Z,10.38
2023-05-08T19:55:46.342Z,10.11
2023-05-08T19:58:14.186Z,10.27
2023-05-08T20:00:43.499Z,10.19
2023-05-08T20:03:11.373Z,10.15
2023-05-08T20:05:39.240Z,10.11
2023-05-08T20:08:07.394Z,10.07
2023-05-08T20:10:35.222Z,10.02
2023-05-08T20:13:03.581Z,9.98
2023-05-08T20:15:31.620Z,9.92
2023-05-08T20:18:00.902Z,9.82
2023-05-08T20:20:29.759Z,9.81
2023-05-08T20:22:58.106Z,9.70
2023-05-08T20:25:25.986Z,9.69
2023-05-08T20:27:54.634Z,9.72
2023-05-08T20:30:23.620Z,9.62
2023-05-08T20:32:51.883Z,9.57
2023-05-08T20:35:21.378Z,9.52
2023-05-08T20:37:49.873Z,9.51
2023-05-08T20:40:17.779Z,9.32
2023-05-08T20:42:45.701Z,9.46
2023-05-08T20:45:15.153Z,9.41
2023-05-08T20:47:44.011Z,9.40
2023-05-08T20:50:12.237Z,9.29
2023-05-08T20:52:42.571Z,9.36
2023-05-08T20:55:11.260Z,9.18
2023-05-08T20:57:41.553Z,9.34
2023-05-08T21:00:10.453Z,9.25
2023-05-08T21:02:41.258Z,9.26
2023-05-08T21:05:11.344Z,9.21
2023-05-08T21:07:42.591Z,9.26
2023-05-08T21:10:11.242Z,9.25
2023-05-08T21:12:39.891Z,9.22
2023-05-08T21:15:09.239Z,9.19
2023-05-08T21:17:37.173Z,9.16
2023-05-08T21:20:05.478Z,9.14
2023-05-08T21:22:34.561Z,9.12
2023-05-08T21:25:03.899Z,9.09
2023-05-08T21:27:31.746Z,9.07
2023-05-08T21:29:59.677Z,9.00
2023-05-08T21:32:27.620Z,9.01
2023-05-08T21:34:56.176Z,8.97
2023-05-08T21:37:24.087Z,8.84
2023-05-08T21:39:52.018Z,8.84
2023-05-08T21:42:21.273Z,8.91
2023-05-08T21:44:49.232Z,8.89
2023-05-08T21:47:17.185Z,8.83
2023-05-08T21:49:45.004Z,8.73
2023-05-08T21:52:12.912Z,8.76
2023-05-08T21:54:40.894Z,8.72
2023-05-08T21:57:10.003Z,8.57
2023-05-08T21:59:39.342Z,8.53
2023-05-08T22:02:07.383Z,8.63
2023-05-08T22:04:35.324Z,8.54
2023-05-08T22:07:03.304Z,8.56
2023-05-08T22:09:31.287Z,8.55
2023-05-08T22:11:59.265Z,8.51
2023-05-08T22:14:27.227Z,8.49
2023-05-08T22:16:56.524Z,8.43
2023-05-08T22:19:24.335Z,8.39
2023-05-08T22:21:52.321Z,8.37
2023-05-08T22:24:20.268Z,8.37
2023-05-08T22:26:48.084Z,8.22
2023-05-08T22:29:17.019Z,8.31
2023-05-08T22:31:45.462Z,8.30
2023-05-08T22:34:15.016Z,8.26
2023-05-08T22:36:43.021Z,8.22
2023-05-08T22:39:11.711Z,8.17
2023-05-08T22:41:39.688Z,8.15
2023-05-08T22:44:07.999Z,8.13
2023-05-08T22:46:36.926Z,8.05
2023-05-08T22:49:05.055Z,8.12
2023-05-08T22:51:34.481Z,8.10
2023-05-08T22:54:02.376Z,8.08
2023-05-08T22:56:30.271Z,7.98
2023-05-08T22:58:58.191Z,8.02
2023-05-08T23:01:26.168Z,8.05
2023-05-08T23:03:56.608Z,8.02
2023-05-08T23:06:24.611Z,7.71
2023-05-08T23:08:53.944Z,7.93
2023-05-08T23:11:22.365Z,7.96
2023-05-08T23:13:50.254Z,7.94
2023-05-08T23:16:18.274Z,7.93
2023-05-08T23:18:46.428Z,7.91
2023-05-08T23:21:14.566Z,7.88
2023-05-08T23:23:42.568Z,7.87
2023-05-08T23:26:11.767Z,7.86
2023-05-08T23:28:39.690Z,7.86
2023-05-08T23:31:07.693Z,7.86
2023-05-08T23:33:35.570Z,7.83
2023-05-08T23:36:03.605Z,7.82
2023-05-08T23:38:32.831Z,7.74
2023-05-08T23:41:02.127Z,7.77
2023-05-08T23:43:31.465Z,7.56
2023-05-08T23:45:59.407Z,7.65
2023-05-08T23:48:27.550Z,7.61
2023-05-08T23:50:55.660Z,7.71
2023-05-08T23:53:23.644Z,6.77
2023-05-08T23:55:52.381Z,7.71
2023-05-08T23:58:20.428Z,7.33
